sensor_id;sensor_type;location;lat;lon;timestamp;P1;durP1;ratioP1;P2;durP2;ratioP2
53293;SDS011;39181;53.440;5.644;2023-03-14T00:02:10;24.55;;;4.50;;
53293;SDS011;39181;53.440;5.644;2023-03-14T00:04:35;34.28;;;4.53;;
53293;SDS011;39181;53.440;5.644;2023-03-14T00:07:01;31.90;;;4.75;;
53293;SDS011;39181;53.440;5.644;2023-03-14T00:09:27;34.78;;;5.18;;
53293;SDS011;39181;53.440;5.644;2023-03-14T00:11:54;33.17;;;5.40;;
53293;SDS011;39181;53.440;5.644;2023-03-14T00:14:20;28.20;;;3.95;;
53293;SDS011;39181;53.440;5.644;2023-03-14T00:16:46;30.35;;;3.97;;
53293;SDS011;39181;53.440;5.644;2023-03-14T00:19:11;34.63;;;4.70;;
53293;SDS011;39181;53.440;5.644;2023-03-14T00:21:37;35.05;;;4.05;;
53293;SDS011;39181;53.440;5.644;2023-03-14T00:24:03;27.00;;;4.25;;
53293;SDS011;39181;53.440;5.644;2023-03-14T00:26:28;35.45;;;4.32;;
53293;SDS011;39181;53.440;5.644;2023-03-14T00:28:54;28.20;;;4.20;;
53293;SDS011;39181;53.440;5.644;2023-03-14T00:31:20;29.27;;;4.00;;
53293;SDS011;39181;53.440;5.644;2023-03-14T00:33:46;26.70;;;5.03;;
53293;SDS011;39181;53.440;5.644;2023-03-14T00:36:12;28.70;;;4.40;;
53293;SDS011;39181;53.440;5.644;2023-03-14T00:38:40;31.67;;;4.53;;
53293;SDS011;39181;53.440;5.644;2023-03-14T00:41:07;37.70;;;5.00;;
53293;SDS011;39181;53.440;5.644;2023-03-14T00:43:34;31.95;;;4.55;;
53293;SDS011;39181;53.440;5.644;2023-03-14T00:46:00;36.92;;;5.13;;
53293;SDS011;39181;53.440;5.644;2023-03-14T00:48:26;29.90;;;4.10;;
53293;SDS011;39181;53.440;5.644;2023-03-14T00:50:52;30.60;;;3.85;;
53293;SDS011;39181;53.440;5.644;2023-03-14T00:53:17;35.40;;;5.18;;
53293;SDS011;39181;53.440;5.644;2023-03-14T00:55:43;33.38;;;4.63;;
53293;SDS011;39181;53.440;5.644;2023-03-14T00:58:13;35.35;;;4.70;;
53293;SDS011;39181;53.440;5.644;2023-03-14T01:00:40;29.48;;;3.90;;
53293;SDS011;39181;53.440;5.644;2023-03-14T01:03:06;33.30;;;4.90;;
53293;SDS011;39181;53.440;5.644;2023-03-14T01:05:33;35.15;;;4.32;;
53293;SDS011;39181;53.440;5.644;2023-03-14T01:07:59;31.08;;;4.95;;
53293;SDS011;39181;53.440;5.644;2023-03-14T01:10:24;39.97;;;4.82;;
53293;SDS011;39181;53.440;5.644;2023-03-14T01:12:50;31.35;;;5.40;;
53293;SDS011;39181;53.440;5.644;2023-03-14T01:15:16;30.98;;;4.35;;
53293;SDS011;39181;53.440;5.644;2023-03-14T01:17:42;34.22;;;4.80;;
53293;SDS011;39181;53.440;5.644;2023-03-14T01:20:08;41.40;;;6.22;;
53293;SDS011;39181;53.440;5.644;2023-03-14T01:22:36;39.70;;;4.90;;
53293;SDS011;39181;53.440;5.644;2023-03-14T01:25:04;44.58;;;5.07;;
53293;SDS011;39181;53.440;5.644;2023-03-14T01:27:31;37.33;;;5.00;;
53293;SDS011;39181;53.440;5.644;2023-03-14T01:29:57;33.00;;;4.68;;
53293;SDS011;39181;53.440;5.644;2023-03-14T01:32:23;35.88;;;5.32;;
53293;SDS011;39181;53.440;5.644;2023-03-14T01:34:50;39.33;;;5.07;;
53293;SDS011;39181;53.440;5.644;2023-03-14T01:37:16;37.03;;;5.47;;
53293;SDS011;39181;53.440;5.644;2023-03-14T01:39:41;40.78;;;5.50;;
53293;SDS011;39181;53.440;5.644;2023-03-14T01:42:07;42.10;;;4.65;;
53293;SDS011;39181;53.440;5.644;2023-03-14T01:47:17;33.67;;;5.18;;
53293;SDS011;39181;53.440;5.644;2023-03-14T01:49:42;41.47;;;5.18;;
53293;SDS011;39181;53.440;5.644;2023-03-14T01:55:10;51.83;;;5.03;;
53293;SDS011;39181;53.440;5.644;2023-03-14T01:57:47;38.17;;;4.88;;
53293;SDS011;39181;53.440;5.644;2023-03-14T02:00:22;35.58;;;4.82;;
53293;SDS011;39181;53.440;5.644;2023-03-14T02:02:52;39.53;;;5.80;;
53293;SDS011;39181;53.440;5.644;2023-03-14T02:05:22;46.08;;;5.28;;
53293;SDS011;39181;53.440;5.644;2023-03-14T02:07:55;41.10;;;5.22;;
53293;SDS011;39181;53.440;5.644;2023-03-14T02:10:23;42.97;;;5.53;;
53293;SDS011;39181;53.440;5.644;2023-03-14T02:12:52;43.60;;;5.40;;
53293;SDS011;39181;53.440;5.644;2023-03-14T02:15:20;36.92;;;5.03;;
53293;SDS011;39181;53.440;5.644;2023-03-14T02:17:46;38.58;;;5.00;;
53293;SDS011;39181;53.440;5.644;2023-03-14T02:22:53;34.30;;;5.43;;
53293;SDS011;39181;53.440;5.644;2023-03-14T02:27:58;41.35;;;4.43;;
53293;SDS011;39181;53.440;5.644;2023-03-14T02:30:26;35.55;;;6.45;;
53293;SDS011;39181;53.440;5.644;2023-03-14T02:33:01;48.13;;;5.03;;
53293;SDS011;39181;53.440;5.644;2023-03-14T02:35:33;42.17;;;6.43;;
53293;SDS011;39181;53.440;5.644;2023-03-14T02:38:21;37.63;;;4.60;;
53293;SDS011;39181;53.440;5.644;2023-03-14T02:40:51;38.10;;;4.47;;
53293;SDS011;39181;53.440;5.644;2023-03-14T02:43:17;41.08;;;5.45;;
53293;SDS011;39181;53.440;5.644;2023-03-14T02:45:46;50.13;;;6.18;;
53293;SDS011;39181;53.440;5.644;2023-03-14T02:51:08;36.90;;;5.38;;
53293;SDS011;39181;53.440;5.644;2023-03-14T02:53:34;40.22;;;4.38;;
53293;SDS011;39181;53.440;5.644;2023-03-14T02:56:02;48.78;;;5.10;;
53293;SDS011;39181;53.440;5.644;2023-03-14T02:58:28;39.72;;;5.32;;
53293;SDS011;39181;53.440;5.644;2023-03-14T03:00:54;41.83;;;5.40;;
53293;SDS011;39181;53.440;5.644;2023-03-14T03:03:19;39.00;;;5.80;;
53293;SDS011;39181;53.440;5.644;2023-03-14T03:05:47;48.88;;;6.05;;
53293;SDS011;39181;53.440;5.644;2023-03-14T03:08:15;37.25;;;4.65;;
53293;SDS011;39181;53.440;5.644;2023-03-14T03:10:41;37.08;;;4.25;;
53293;SDS011;39181;53.440;5.644;2023-03-14T03:13:06;49.38;;;5.93;;
53293;SDS011;39181;53.440;5.644;2023-03-14T03:15:32;39.38;;;5.07;;
53293;SDS011;39181;53.440;5.644;2023-03-14T03:17:57;43.95;;;5.18;;
53293;SDS011;39181;53.440;5.644;2023-03-14T03:20:23;41.78;;;5.30;;
53293;SDS011;39181;53.440;5.644;2023-03-14T03:22:49;40.92;;;4.80;;
53293;SDS011;39181;53.440;5.644;2023-03-14T03:25:14;41.28;;;6.57;;
53293;SDS011;39181;53.440;5.644;2023-03-14T03:27:40;61.10;;;5.95;;
53293;SDS011;39181;53.440;5.644;2023-03-14T03:30:06;40.40;;;4.68;;
53293;SDS011;39181;53.440;5.644;2023-03-14T03:32:33;43.22;;;6.07;;
53293;SDS011;39181;53.440;5.644;2023-03-14T03:34:58;48.40;;;6.32;;
53293;SDS011;39181;53.440;5.644;2023-03-14T03:37:24;41.92;;;6.25;;
53293;SDS011;39181;53.440;5.644;2023-03-14T03:39:50;49.00;;;6.57;;
53293;SDS011;39181;53.440;5.644;2023-03-14T03:42:16;49.63;;;6.97;;
53293;SDS011;39181;53.440;5.644;2023-03-14T03:44:42;49.47;;;7.15;;
53293;SDS011;39181;53.440;5.644;2023-03-14T03:47:08;39.38;;;5.53;;
53293;SDS011;39181;53.440;5.644;2023-03-14T03:49:33;49.67;;;6.90;;
53293;SDS011;39181;53.440;5.644;2023-03-14T03:51:59;46.33;;;6.20;;
53293;SDS011;39181;53.440;5.644;2023-03-14T03:54:25;39.85;;;5.60;;
53293;SDS011;39181;53.440;5.644;2023-03-14T03:56:51;49.95;;;6.32;;
53293;SDS011;39181;53.440;5.644;2023-03-14T03:59:17;55.10;;;6.53;;
53293;SDS011;39181;53.440;5.644;2023-03-14T04:01:42;52.80;;;5.65;;
53293;SDS011;39181;53.440;5.644;2023-03-14T04:04:08;39.92;;;5.05;;
53293;SDS011;39181;53.440;5.644;2023-03-14T04:06:34;54.33;;;5.90;;
53293;SDS011;39181;53.440;5.644;2023-03-14T04:08:59;49.50;;;6.57;;
53293;SDS011;39181;53.440;5.644;2023-03-14T04:11:25;51.90;;;6.03;;
53293;SDS011;39181;53.440;5.644;2023-03-14T04:13:51;45.63;;;5.65;;
53293;SDS011;39181;53.440;5.644;2023-03-14T04:16:18;41.83;;;5.82;;
53293;SDS011;39181;53.440;5.644;2023-03-14T04:18:46;39.47;;;5.80;;
53293;SDS011;39181;53.440;5.644;2023-03-14T04:21:12;37.47;;;5.53;;
53293;SDS011;39181;53.440;5.644;2023-03-14T04:23:38;44.42;;;4.60;;
53293;SDS011;39181;53.440;5.644;2023-03-14T04:26:03;36.67;;;5.20;;
53293;SDS011;39181;53.440;5.644;2023-03-14T04:28:29;41.85;;;4.53;;
53293;SDS011;39181;53.440;5.644;2023-03-14T04:30:55;42.63;;;4.95;;
53293;SDS011;39181;53.440;5.644;2023-03-14T04:33:21;38.35;;;4.57;;
53293;SDS011;39181;53.440;5.644;2023-03-14T04:35:46;32.38;;;3.65;;
53293;SDS011;39181;53.440;5.644;2023-03-14T04:38:12;31.20;;;4.38;;
53293;SDS011;39181;53.440;5.644;2023-03-14T04:40:39;39.13;;;4.43;;
53293;SDS011;39181;53.440;5.644;2023-03-14T04:43:06;37.13;;;4.57;;
53293;SDS011;39181;53.440;5.644;2023-03-14T04:45:32;37.47;;;4.25;;
53293;SDS011;39181;53.440;5.644;2023-03-14T04:47:58;38.22;;;4.55;;
53293;SDS011;39181;53.440;5.644;2023-03-14T04:50:23;31.88;;;3.90;;
53293;SDS011;39181;53.440;5.644;2023-03-14T04:52:49;37.15;;;4.10;;
53293;SDS011;39181;53.440;5.644;2023-03-14T04:55:14;32.70;;;4.32;;
53293;SDS011;39181;53.440;5.644;2023-03-14T04:57:40;45.10;;;2.80;;
53293;SDS011;39181;53.440;5.644;2023-03-14T05:00:06;21.25;;;2.55;;
53293;SDS011;39181;53.440;5.644;2023-03-14T05:02:32;19.50;;;1.65;;
53293;SDS011;39181;53.440;5.644;2023-03-14T05:04:58;20.55;;;2.72;;
53293;SDS011;39181;53.440;5.644;2023-03-14T05:07:24;12.88;;;1.50;;
53293;SDS011;39181;53.440;5.644;2023-03-14T05:09:50;14.60;;;1.33;;
53293;SDS011;39181;53.440;5.644;2023-03-14T05:12:15;14.25;;;1.52;;
53293;SDS011;39181;53.440;5.644;2023-03-14T05:14:41;23.75;;;1.92;;
53293;SDS011;39181;53.440;5.644;2023-03-14T05:17:07;13.52;;;2.58;;
53293;SDS011;39181;53.440;5.644;2023-03-14T05:19:32;10.23;;;1.40;;
53293;SDS011;39181;53.440;5.644;2023-03-14T05:21:58;22.63;;;2.13;;
53293;SDS011;39181;53.440;5.644;2023-03-14T05:24:23;23.67;;;2.20;;
53293;SDS011;39181;53.440;5.644;2023-03-14T05:26:49;26.45;;;2.55;;
53293;SDS011;39181;53.440;5.644;2023-03-14T05:29:14;22.10;;;2.45;;
53293;SDS011;39181;53.440;5.644;2023-03-14T05:31:40;16.25;;;1.95;;
53293;SDS011;39181;53.440;5.644;2023-03-14T05:34:05;19.10;;;2.03;;
53293;SDS011;39181;53.440;5.644;2023-03-14T05:36:31;27.42;;;2.78;;
53293;SDS011;39181;53.440;5.644;2023-03-14T05:38:57;14.85;;;1.42;;
53293;SDS011;39181;53.440;5.644;2023-03-14T05:41:22;16.83;;;1.63;;
53293;SDS011;39181;53.440;5.644;2023-03-14T05:43:48;12.18;;;1.30;;
53293;SDS011;39181;53.440;5.644;2023-03-14T05:46:13;11.85;;;1.42;;
53293;SDS011;39181;53.440;5.644;2023-03-14T05:48:39;23.30;;;4.05;;
53293;SDS011;39181;53.440;5.644;2023-03-14T05:51:04;13.88;;;1.50;;
53293;SDS011;39181;53.440;5.644;2023-03-14T05:53:30;15.15;;;1.30;;
53293;SDS011;39181;53.440;5.644;2023-03-14T05:55:56;14.60;;;1.33;;
53293;SDS011;39181;53.440;5.644;2023-03-14T05:58:22;13.88;;;1.02;;
53293;SDS011;39181;53.440;5.644;2023-03-14T06:00:48;12.13;;;1.20;;
53293;SDS011;39181;53.440;5.644;2023-03-14T06:03:13;7.85;;;0.95;;
53293;SDS011;39181;53.440;5.644;2023-03-14T06:05:39;9.32;;;0.98;;
53293;SDS011;39181;53.440;5.644;2023-03-14T06:08:05;5.40;;;0.82;;
53293;SDS011;39181;53.440;5.644;2023-03-14T06:10:30;4.70;;;0.50;;
53293;SDS011;39181;53.440;5.644;2023-03-14T06:12:56;7.82;;;1.70;;
53293;SDS011;39181;53.440;5.644;2023-03-14T06:15:22;5.63;;;0.93;;
53293;SDS011;39181;53.440;5.644;2023-03-14T06:17:47;8.23;;;0.95;;
53293;SDS011;39181;53.440;5.644;2023-03-14T06:20:13;10.15;;;0.88;;
53293;SDS011;39181;53.440;5.644;2023-03-14T06:22:39;14.07;;;0.82;;
53293;SDS011;39181;53.440;5.644;2023-03-14T06:25:05;6.25;;;0.55;;
53293;SDS011;39181;53.440;5.644;2023-03-14T06:27:32;8.77;;;1.05;;
53293;SDS011;39181;53.440;5.644;2023-03-14T06:29:58;11.77;;;0.85;;
53293;SDS011;39181;53.440;5.644;2023-03-14T06:32:24;15.30;;;2.42;;
53293;SDS011;39181;53.440;5.644;2023-03-14T06:34:50;6.00;;;0.82;;
53293;SDS011;39181;53.440;5.644;2023-03-14T06:37:15;7.95;;;0.80;;
53293;SDS011;39181;53.440;5.644;2023-03-14T06:39:41;8.68;;;1.00;;
53293;SDS011;39181;53.440;5.644;2023-03-14T06:42:08;10.00;;;0.93;;
53293;SDS011;39181;53.440;5.644;2023-03-14T06:44:34;10.48;;;1.15;;
53293;SDS011;39181;53.440;5.644;2023-03-14T06:47:00;7.47;;;1.27;;
53293;SDS011;39181;53.440;5.644;2023-03-14T06:49:26;6.68;;;1.75;;
53293;SDS011;39181;53.440;5.644;2023-03-14T06:51:52;9.27;;;1.08;;
53293;SDS011;39181;53.440;5.644;2023-03-14T06:54:17;7.78;;;1.02;;
53293;SDS011;39181;53.440;5.644;2023-03-14T06:56:43;6.05;;;0.65;;
53293;SDS011;39181;53.440;5.644;2023-03-14T06:59:08;8.90;;;0.88;;
53293;SDS011;39181;53.440;5.644;2023-03-14T07:01:34;11.55;;;0.93;;
53293;SDS011;39181;53.440;5.644;2023-03-14T07:04:02;10.45;;;0.85;;
53293;SDS011;39181;53.440;5.644;2023-03-14T07:06:28;7.03;;;1.35;;
53293;SDS011;39181;53.440;5.644;2023-03-14T07:08:54;12.07;;;2.47;;
53293;SDS011;39181;53.440;5.644;2023-03-14T07:11:21;10.25;;;1.00;;
53293;SDS011;39181;53.440;5.644;2023-03-14T07:13:48;12.35;;;2.03;;
53293;SDS011;39181;53.440;5.644;2023-03-14T07:16:14;18.88;;;1.80;;
53293;SDS011;39181;53.440;5.644;2023-03-14T07:18:39;6.35;;;1.40;;
53293;SDS011;39181;53.440;5.644;2023-03-14T07:21:06;8.00;;;0.70;;
53293;SDS011;39181;53.440;5.644;2023-03-14T07:23:33;14.00;;;1.80;;
53293;SDS011;39181;53.440;5.644;2023-03-14T07:25:58;23.30;;;2.42;;
53293;SDS011;39181;53.440;5.644;2023-03-14T07:28:24;20.75;;;2.13;;
53293;SDS011;39181;53.440;5.644;2023-03-14T07:30:50;17.23;;;1.60;;
53293;SDS011;39181;53.440;5.644;2023-03-14T07:33:15;17.35;;;2.55;;
53293;SDS011;39181;53.440;5.644;2023-03-14T07:35:41;21.42;;;3.05;;
53293;SDS011;39181;53.440;5.644;2023-03-14T07:38:06;20.67;;;1.77;;
53293;SDS011;39181;53.440;5.644;2023-03-14T07:40:32;21.13;;;2.88;;
53293;SDS011;39181;53.440;5.644;2023-03-14T07:42:58;15.27;;;2.00;;
53293;SDS011;39181;53.440;5.644;2023-03-14T07:45:23;19.80;;;3.22;;
53293;SDS011;39181;53.440;5.644;2023-03-14T07:47:49;17.73;;;2.53;;
53293;SDS011;39181;53.440;5.644;2023-03-14T07:50:14;19.52;;;2.03;;
53293;SDS011;39181;53.440;5.644;2023-03-14T07:52:40;28.52;;;2.75;;
53293;SDS011;39181;53.440;5.644;2023-03-14T07:55:06;25.35;;;3.20;;
53293;SDS011;39181;53.440;5.644;2023-03-14T07:57:32;14.50;;;2.80;;
53293;SDS011;39181;53.440;5.644;2023-03-14T07:59:57;20.75;;;2.17;;
53293;SDS011;39181;53.440;5.644;2023-03-14T08:02:23;26.23;;;3.25;;
53293;SDS011;39181;53.440;5.644;2023-03-14T08:04:49;20.80;;;2.60;;
53293;SDS011;39181;53.440;5.644;2023-03-14T08:07:15;16.35;;;1.95;;
53293;SDS011;39181;53.440;5.644;2023-03-14T08:09:41;26.85;;;3.50;;
53293;SDS011;39181;53.440;5.644;2023-03-14T08:12:07;14.82;;;2.17;;
53293;SDS011;39181;53.440;5.644;2023-03-14T08:14:33;20.83;;;2.97;;
53293;SDS011;39181;53.440;5.644;2023-03-14T08:16:58;34.42;;;3.13;;
53293;SDS011;39181;53.440;5.644;2023-03-14T08:19:24;26.10;;;2.10;;
53293;SDS011;39181;53.440;5.644;2023-03-14T08:21:49;30.63;;;3.67;;
53293;SDS011;39181;53.440;5.644;2023-03-14T08:24:15;24.83;;;3.40;;
53293;SDS011;39181;53.440;5.644;2023-03-14T08:26:41;16.60;;;3.33;;
53293;SDS011;39181;53.440;5.644;2023-03-14T08:29:07;26.83;;;3.00;;
53293;SDS011;39181;53.440;5.644;2023-03-14T08:31:34;28.75;;;3.15;;
53293;SDS011;39181;53.440;5.644;2023-03-14T08:34:00;15.90;;;1.92;;
53293;SDS011;39181;53.440;5.644;2023-03-14T08:36:26;31.60;;;2.40;;
53293;SDS011;39181;53.440;5.644;2023-03-14T08:38:52;19.98;;;3.38;;
53293;SDS011;39181;53.440;5.644;2023-03-14T08:41:18;28.80;;;2.78;;
53293;SDS011;39181;53.440;5.644;2023-03-14T08:43:44;19.10;;;3.13;;
53293;SDS011;39181;53.440;5.644;2023-03-14T08:46:09;31.70;;;2.90;;
53293;SDS011;39181;53.440;5.644;2023-03-14T08:48:35;23.83;;;2.28;;
53293;SDS011;39181;53.440;5.644;2023-03-14T08:51:11;28.13;;;3.22;;
53293;SDS011;39181;53.440;5.644;2023-03-14T08:53:38;17.02;;;2.60;;
53293;SDS011;39181;53.440;5.644;2023-03-14T08:56:05;26.83;;;3.03;;
53293;SDS011;39181;53.440;5.644;2023-03-14T08:58:32;31.50;;;2.53;;
53293;SDS011;39181;53.440;5.644;2023-03-14T09:00:58;22.65;;;3.08;;
53293;SDS011;39181;53.440;5.644;2023-03-14T09:03:24;21.00;;;2.08;;
53293;SDS011;39181;53.440;5.644;2023-03-14T09:05:50;16.67;;;2.55;;
53293;SDS011;39181;53.440;5.644;2023-03-14T09:08:16;22.25;;;2.50;;
53293;SDS011;39181;53.440;5.644;2023-03-14T09:10:42;13.10;;;2.10;;
53293;SDS011;39181;53.440;5.644;2023-03-14T09:13:07;21.17;;;2.63;;
53293;SDS011;39181;53.440;5.644;2023-03-14T09:15:33;15.98;;;2.15;;
53293;SDS011;39181;53.440;5.644;2023-03-14T09:17:59;17.00;;;2.58;;
53293;SDS011;39181;53.440;5.644;2023-03-14T09:20:24;18.52;;;2.08;;
53293;SDS011;39181;53.440;5.644;2023-03-14T09:22:50;20.58;;;2.45;;
53293;SDS011;39181;53.440;5.644;2023-03-14T09:25:15;27.55;;;2.97;;
53293;SDS011;39181;53.440;5.644;2023-03-14T09:27:41;13.73;;;2.30;;
53293;SDS011;39181;53.440;5.644;2023-03-14T09:30:07;12.00;;;2.00;;
53293;SDS011;39181;53.440;5.644;2023-03-14T09:32:34;15.82;;;2.13;;
53293;SDS011;39181;53.440;5.644;2023-03-14T09:34:59;20.48;;;2.28;;
53293;SDS011;39181;53.440;5.644;2023-03-14T09:37:25;16.42;;;2.00;;
53293;SDS011;39181;53.440;5.644;2023-03-14T09:39:51;18.00;;;2.28;;
53293;SDS011;39181;53.440;5.644;2023-03-14T09:42:17;17.08;;;2.22;;
53293;SDS011;39181;53.440;5.644;2023-03-14T09:47:16;11.65;;;1.90;;
53293;SDS011;39181;53.440;5.644;2023-03-14T09:49:44;12.30;;;2.55;;
53293;SDS011;39181;53.440;5.644;2023-03-14T09:54:50;15.95;;;2.63;;
53293;SDS011;39181;53.440;5.644;2023-03-14T09:57:21;11.70;;;2.50;;
53293;SDS011;39181;53.440;5.644;2023-03-14T09:59:49;13.55;;;2.05;;
53293;SDS011;39181;53.440;5.644;2023-03-14T10:02:19;15.60;;;2.63;;
53293;SDS011;39181;53.440;5.644;2023-03-14T10:04:50;14.25;;;2.20;;
53293;SDS011;39181;53.440;5.644;2023-03-14T10:07:19;17.52;;;1.95;;
53293;SDS011;39181;53.440;5.644;2023-03-14T10:09:50;14.48;;;2.55;;
53293;SDS011;39181;53.440;5.644;2023-03-14T10:12:18;16.98;;;1.90;;
53293;SDS011;39181;53.440;5.644;2023-03-14T10:14:53;10.40;;;1.75;;
53293;SDS011;39181;53.440;5.644;2023-03-14T10:17:19;13.68;;;1.58;;
53293;SDS011;39181;53.440;5.644;2023-03-14T10:19:53;17.05;;;1.98;;
53293;SDS011;39181;53.440;5.644;2023-03-14T10:22:20;10.77;;;2.13;;
53293;SDS011;39181;53.440;5.644;2023-03-14T10:24:55;12.23;;;1.50;;
53293;SDS011;39181;53.440;5.644;2023-03-14T10:27:31;9.32;;;1.05;;
53293;SDS011;39181;53.440;5.644;2023-03-14T10:30:00;9.73;;;1.83;;
53293;SDS011;39181;53.440;5.644;2023-03-14T10:32:31;13.80;;;1.48;;
53293;SDS011;39181;53.440;5.644;2023-03-14T10:35:06;16.45;;;1.83;;
53293;SDS011;39181;53.440;5.644;2023-03-14T10:37:36;18.58;;;1.77;;
53293;SDS011;39181;53.440;5.644;2023-03-14T10:40:19;9.20;;;1.60;;
53293;SDS011;39181;53.440;5.644;2023-03-14T10:42:48;14.27;;;1.80;;
53293;SDS011;39181;53.440;5.644;2023-03-14T10:47:53;12.82;;;1.98;;
53293;SDS011;39181;53.440;5.644;2023-03-14T10:50:23;20.88;;;2.22;;
53293;SDS011;39181;53.440;5.644;2023-03-14T10:52:54;15.27;;;1.30;;
53293;SDS011;39181;53.440;5.644;2023-03-14T10:55:22;15.77;;;1.60;;
53293;SDS011;39181;53.440;5.644;2023-03-14T10:57:50;7.38;;;1.30;;
53293;SDS011;39181;53.440;5.644;2023-03-14T11:00:20;17.27;;;2.25;;
53293;SDS011;39181;53.440;5.644;2023-03-14T11:05:45;12.82;;;1.98;;
53293;SDS011;39181;53.440;5.644;2023-03-14T11:08:19;16.70;;;1.85;;
53293;SDS011;39181;53.440;5.644;2023-03-14T11:11:18;12.52;;;1.75;;
53293;SDS011;39181;53.440;5.644;2023-03-14T11:16:34;16.45;;;1.95;;
53293;SDS011;39181;53.440;5.644;2023-03-14T11:19:25;16.38;;;1.65;;
53293;SDS011;39181;53.440;5.644;2023-03-14T11:22:20;9.65;;;1.60;;
53293;SDS011;39181;53.440;5.644;2023-03-14T11:28:01;14.60;;;2.28;;
53293;SDS011;39181;53.440;5.644;2023-03-14T11:33:16;12.55;;;1.48;;
53293;SDS011;39181;53.440;5.644;2023-03-14T11:38:48;16.33;;;1.80;;
53293;SDS011;39181;53.440;5.644;2023-03-14T11:41:37;18.13;;;1.67;;
53293;SDS011;39181;53.440;5.644;2023-03-14T11:44:04;9.18;;;1.35;;
53293;SDS011;39181;53.440;5.644;2023-03-14T11:46:43;13.55;;;1.15;;
53293;SDS011;39181;53.440;5.644;2023-03-14T11:49:27;9.60;;;1.15;;
53293;SDS011;39181;53.440;5.644;2023-03-14T11:51:56;9.93;;;1.40;;
53293;SDS011;39181;53.440;5.644;2023-03-14T11:56:55;10.75;;;1.60;;
53293;SDS011;39181;53.440;5.644;2023-03-14T11:59:25;17.95;;;1.77;;
53293;SDS011;39181;53.440;5.644;2023-03-14T12:01:57;9.80;;;1.20;;
53293;SDS011;39181;53.440;5.644;2023-03-14T12:07:21;12.15;;;1.20;;
53293;SDS011;39181;53.440;5.644;2023-03-14T12:10:02;13.65;;;1.50;;
53293;SDS011;39181;53.440;5.644;2023-03-14T12:12:28;21.92;;;2.10;;
53293;SDS011;39181;53.440;5.644;2023-03-14T12:14:59;11.00;;;1.63;;
53293;SDS011;39181;53.440;5.644;2023-03-14T12:17:52;10.60;;;1.45;;
53293;SDS011;39181;53.440;5.644;2023-03-14T12:20:22;11.23;;;1.40;;
53293;SDS011;39181;53.440;5.644;2023-03-14T12:22:50;21.35;;;2.00;;
53293;SDS011;39181;53.440;5.644;2023-03-14T12:25:22;11.07;;;1.33;;
53293;SDS011;39181;53.440;5.644;2023-03-14T12:43:50;12.57;;;1.35;;
53293;SDS011;39181;53.440;5.644;2023-03-14T12:46:26;6.78;;;1.23;;
53293;SDS011;39181;53.440;5.644;2023-03-14T12:51:28;10.52;;;1.48;;
53293;SDS011;39181;53.440;5.644;2023-03-14T12:59:15;8.82;;;1.55;;
53293;SDS011;39181;53.440;5.644;2023-03-14T13:04:32;6.97;;;0.90;;
53293;SDS011;39181;53.440;5.644;2023-03-14T13:07:01;11.40;;;1.85;;
53293;SDS011;39181;53.440;5.644;2023-03-14T13:12:10;14.80;;;1.73;;
53293;SDS011;39181;53.440;5.644;2023-03-14T13:14:45;12.27;;;1.52;;
53293;SDS011;39181;53.440;5.644;2023-03-14T13:17:14;7.40;;;1.42;;
53293;SDS011;39181;53.440;5.644;2023-03-14T13:19:44;14.30;;;1.67;;
53293;SDS011;39181;53.440;5.644;2023-03-14T13:22:26;7.65;;;1.00;;
53293;SDS011;39181;53.440;5.644;2023-03-14T13:25:00;11.98;;;1.90;;
53293;SDS011;39181;53.440;5.644;2023-03-14T13:27:29;8.73;;;1.10;;
53293;SDS011;39181;53.440;5.644;2023-03-14T13:29:57;13.13;;;1.50;;
53293;SDS011;39181;53.440;5.644;2023-03-14T13:32:26;10.35;;;1.42;;
53293;SDS011;39181;53.440;5.644;2023-03-14T13:34:56;12.30;;;1.25;;
53293;SDS011;39181;53.440;5.644;2023-03-14T13:37:24;8.90;;;1.33;;
53293;SDS011;39181;53.440;5.644;2023-03-14T13:39:55;7.70;;;1.33;;
53293;SDS011;39181;53.440;5.644;2023-03-14T13:42:26;11.75;;;1.90;;
53293;SDS011;39181;53.440;5.644;2023-03-14T13:44:54;7.65;;;1.08;;
53293;SDS011;39181;53.440;5.644;2023-03-14T13:47:21;12.68;;;1.92;;
53293;SDS011;39181;53.440;5.644;2023-03-14T13:49:49;12.73;;;1.70;;
53293;SDS011;39181;53.440;5.644;2023-03-14T13:52:37;19.17;;;1.33;;
53293;SDS011;39181;53.440;5.644;2023-03-14T13:55:02;8.43;;;1.02;;
53293;SDS011;39181;53.440;5.644;2023-03-14T13:57:43;15.23;;;1.20;;
53293;SDS011;39181;53.440;5.644;2023-03-14T14:00:17;17.63;;;1.75;;
53293;SDS011;39181;53.440;5.644;2023-03-14T14:02:44;16.65;;;2.22;;
53293;SDS011;39181;53.440;5.644;2023-03-14T14:05:11;10.88;;;1.65;;
53293;SDS011;39181;53.440;5.644;2023-03-14T14:07:37;10.38;;;1.17;;
53293;SDS011;39181;53.440;5.644;2023-03-14T14:10:04;5.68;;;0.65;;
53293;SDS011;39181;53.440;5.644;2023-03-14T14:12:35;6.22;;;1.55;;
53293;SDS011;39181;53.440;5.644;2023-03-14T14:15:09;5.72;;;1.00;;
53293;SDS011;39181;53.440;5.644;2023-03-14T14:17:41;17.90;;;2.30;;
53293;SDS011;39181;53.440;5.644;2023-03-14T14:20:16;11.27;;;1.30;;
53293;SDS011;39181;53.440;5.644;2023-03-14T14:22:56;6.97;;;1.70;;
53293;SDS011;39181;53.440;5.644;2023-03-14T14:25:23;12.27;;;1.80;;
53293;SDS011;39181;53.440;5.644;2023-03-14T14:27:49;16.40;;;1.83;;
53293;SDS011;39181;53.440;5.644;2023-03-14T14:32:42;7.75;;;1.33;;
53293;SDS011;39181;53.440;5.644;2023-03-14T14:35:09;9.93;;;1.08;;
53293;SDS011;39181;53.440;5.644;2023-03-14T14:37:46;22.23;;;1.55;;
53293;SDS011;39181;53.440;5.644;2023-03-14T14:40:17;11.35;;;1.88;;
53293;SDS011;39181;53.440;5.644;2023-03-14T14:42:45;13.43;;;0.85;;
53293;SDS011;39181;53.440;5.644;2023-03-14T14:45:22;11.38;;;1.75;;
53293;SDS011;39181;53.440;5.644;2023-03-14T14:47:49;9.75;;;1.48;;
53293;SDS011;39181;53.440;5.644;2023-03-14T14:52:58;12.98;;;2.15;;
53293;SDS011;39181;53.440;5.644;2023-03-14T14:55:33;9.70;;;1.45;;
53293;SDS011;39181;53.440;5.644;2023-03-14T15:00:49;14.05;;;1.73;;
53293;SDS011;39181;53.440;5.644;2023-03-14T15:03:37;8.27;;;1.33;;
53293;SDS011;39181;53.440;5.644;2023-03-14T15:06:03;6.22;;;2.20;;
53293;SDS011;39181;53.440;5.644;2023-03-14T15:08:29;16.67;;;1.92;;
53293;SDS011;39181;53.440;5.644;2023-03-14T15:10:55;7.18;;;1.58;;
53293;SDS011;39181;53.440;5.644;2023-03-14T15:13:22;9.02;;;1.33;;
53293;SDS011;39181;53.440;5.644;2023-03-14T15:15:48;10.60;;;1.63;;
53293;SDS011;39181;53.440;5.644;2023-03-14T15:18:20;12.02;;;1.55;;
53293;SDS011;39181;53.440;5.644;2023-03-14T15:20:47;14.82;;;2.20;;
53293;SDS011;39181;53.440;5.644;2023-03-14T15:23:14;15.13;;;1.67;;
53293;SDS011;39181;53.440;5.644;2023-03-14T15:25:41;8.68;;;1.50;;
53293;SDS011;39181;53.440;5.644;2023-03-14T15:28:17;8.05;;;1.67;;
53293;SDS011;39181;53.440;5.644;2023-03-14T15:30:45;11.75;;;2.10;;
53293;SDS011;39181;53.440;5.644;2023-03-14T15:33:12;8.98;;;1.20;;
53293;SDS011;39181;53.440;5.644;2023-03-14T15:35:38;6.47;;;0.82;;
53293;SDS011;39181;53.440;5.644;2023-03-14T15:38:03;6.60;;;1.27;;
53293;SDS011;39181;53.440;5.644;2023-03-14T15:40:29;8.88;;;1.63;;
53293;SDS011;39181;53.440;5.644;2023-03-14T15:42:55;11.88;;;1.70;;
53293;SDS011;39181;53.440;5.644;2023-03-14T15:45:21;6.93;;;0.93;;
53293;SDS011;39181;53.440;5.644;2023-03-14T15:47:47;11.13;;;1.25;;
53293;SDS011;39181;53.440;5.644;2023-03-14T15:50:12;8.23;;;1.25;;
53293;SDS011;39181;53.440;5.644;2023-03-14T15:52:38;12.82;;;1.38;;
53293;SDS011;39181;53.440;5.644;2023-03-14T15:55:04;8.15;;;1.13;;
53293;SDS011;39181;53.440;5.644;2023-03-14T15:57:29;12.77;;;1.10;;
53293;SDS011;39181;53.440;5.644;2023-03-14T15:59:55;10.48;;;1.20;;